Time;durP1;ratioP1;P1;durP2;ratioP2;P2;SDS_P1;SDS_P2;PMS_P1;PMS_P2;Temp;Humidity;BMP_temperature;BMP_pressure;BME280_temperature;BME280_humidity;BME280_pressure;Samples;Min_cycle;Max_cycle;Signal;HPM_P1;HPM_P2
2022/11/23 00:02:04;;;;;;;9.50;4.60;;;3.50;99.90;;;;;;5136073;27;20213;-79
2022/11/23 00:04:34;;;;;;;9.90;4.77;;;3.50;99.90;;;;;;5136575;27;20217;-79
2022/11/23 00:07:02;;;;;;;8.20;4.70;;;3.70;99.90;;;;;;5135947;27;20238;-80
2022/11/23 00:09:31;;;;;;;8.47;4.47;;;3.60;99.90;;;;;;5136144;27;20201;-79
2022/11/23 00:11:59;;;;;;;9.87;4.90;;;3.70;99.90;;;;;;5135495;27;20577;-79
2022/11/23 00:14:27;;;;;;;8.90;4.30;;;3.70;99.90;;;;;;5135808;27;20228;-79
2022/11/23 00:16:55;;;;;;;8.30;4.20;;;3.70;99.90;;;;;;5135462;27;20202;-79
2022/11/23 00:19:23;;;;;;;7.47;4.30;;;3.80;99.90;;;;;;5135790;27;20213;-80
2022/11/23 00:21:53;;;;;;;7.37;4.43;;;3.80;99.90;;;;;;5135105;27;20206;-79
2022/11/23 00:24:21;;;;;;;8.23;4.30;;;3.90;99.90;;;;;;5135938;27;20209;-78
2022/11/23 00:26:49;;;;;;;7.03;3.90;;;3.90;99.90;;;;;;5135905;27;20586;-77
2022/11/23 00:29:17;;;;;;;6.90;4.27;;;3.90;99.90;;;;;;5135220;27;20284;-79
2022/11/23 00:31:46;;;;;;;7.77;4.40;;;3.90;99.90;;;;;;5126049;27;20222;-79
2022/11/23 00:34:15;;;;;;;6.87;4.10;;;3.90;99.90;;;;;;5116529;28;20228;-79
2022/11/23 00:36:43;;;;;;;8.47;4.30;;;4.00;99.90;;;;;;5124224;28;20202;-78
2022/11/23 00:39:12;;;;;;;7.13;4.30;;;4.00;99.90;;;;;;5122816;28;20672;-79
2022/11/23 00:41:41;;;;;;;7.63;4.20;;;4.00;99.90;;;;;;5115723;28;20223;-78
2022/11/23 00:44:09;;;;;;;7.57;4.20;;;4.00;99.90;;;;;;5121756;27;20202;-78
2022/11/23 00:46:37;;;;;;;7.87;4.10;;;4.00;99.90;;;;;;5135796;27;20210;-77
2022/11/23 00:49:05;;;;;;;8.57;3.90;;;4.10;99.90;;;;;;5135561;27;20220;-75
2022/11/23 00:51:35;;;;;;;8.93;4.47;;;4.00;99.90;;;;;;5136129;27;20206;-76
2022/11/23 00:54:05;;;;;;;9.93;4.70;;;4.10;99.90;;;;;;5134694;27;20214;-75
2022/11/23 00:56:35;;;;;;;6.97;4.47;;;4.10;99.90;;;;;;5134926;27;20205;-75
2022/11/23 00:59:04;;;;;;;6.23;3.60;;;4.10;99.90;;;;;;5135446;27;20221;-76
2022/11/23 01:01:35;;;;;;;6.93;3.90;;;4.10;99.90;;;;;;5134895;27;20209;-75
2022/11/23 01:04:06;;;;;;;6.83;4.10;;;4.10;99.90;;;;;;5135019;27;20298;-77
2022/11/23 01:06:37;;;;;;;7.13;3.70;;;4.10;99.90;;;;;;5134946;27;20201;-78
2022/11/23 01:09:07;;;;;;;8.93;3.90;;;4.10;99.90;;;;;;5135348;27;20197;-79
2022/11/23 01:11:37;;;;;;;7.03;3.97;;;4.10;99.90;;;;;;5135034;27;20205;-79
2022/11/23 01:14:05;;;;;;;6.70;4.00;;;4.10;99.90;;;;;;5116036;27;20221;-79
2022/11/23 01:16:35;;;;;;;8.47;4.70;;;4.10;99.90;;;;;;5114060;28;20237;-78
2022/11/23 01:19:05;;;;;;;12.13;5.57;;;4.20;99.90;;;;;;5114256;27;20649;-80
2022/11/23 01:21:35;;;;;;;13.80;9.17;;;4.20;99.90;;;;;;5114386;28;20209;-79
2022/11/23 01:24:05;;;;;;;20.03;13.10;;;4.20;99.90;;;;;;5114071;28;20206;-79
2022/11/23 01:26:33;;;;;;;19.27;11.73;;;4.20;99.90;;;;;;5114388;28;20206;-78
2022/11/23 01:29:03;;;;;;;17.63;11.17;;;4.20;99.90;;;;;;5133309;27;20225;-79
2022/11/23 01:31:31;;;;;;;18.67;13.07;;;4.30;99.90;;;;;;5134762;27;20206;-78
2022/11/23 01:34:00;;;;;;;15.53;9.47;;;4.30;99.90;;;;;;5134052;27;20200;-76
2022/11/23 01:36:30;;;;;;;16.97;10.37;;;4.30;99.90;;;;;;5134514;27;20580;-79
2022/11/23 01:39:01;;;;;;;16.00;10.70;;;4.30;99.90;;;;;;5134718;27;20208;-79
2022/11/23 01:41:32;;;;;;;19.77;13.77;;;4.30;99.90;;;;;;5133937;27;20216;-80
2022/11/23 01:44:00;;;;;;;17.13;10.70;;;4.30;99.90;;;;;;5132776;27;20658;-78
2022/11/23 01:46:30;;;;;;;14.00;8.70;;;4.30;99.90;;;;;;5134015;27;20209;-75
2022/11/23 01:49:03;;;;;;;7.60;4.87;;;4.30;99.90;;;;;;5133753;27;20221;-78
2022/11/23 01:51:37;;;;;;;9.33;5.27;;;4.30;99.90;;;;;;5133609;27;20211;-79
2022/11/23 01:54:08;;;;;;;9.17;4.70;;;4.40;99.90;;;;;;5133621;27;20220;-77
2022/11/23 01:56:41;;;;;;;11.00;5.43;;;4.30;99.90;;;;;;5133829;27;20225;-79
2022/11/23 01:59:13;;;;;;;8.50;4.40;;;4.40;99.90;;;;;;5133860;27;20636;-79
2022/11/23 02:01:43;;;;;;;9.90;4.83;;;4.40;99.90;;;;;;5134067;27;20261;-79
2022/11/23 02:04:16;;;;;;;8.50;4.30;;;4.30;99.90;;;;;;5134645;27;20209;-75
2022/11/23 02:06:46;;;;;;;8.20;3.90;;;4.40;99.90;;;;;;5134498;27;20646;-79
2022/11/23 02:09:16;;;;;;;9.77;4.40;;;4.40;99.90;;;;;;5134611;27;20212;-79
2022/11/23 02:11:44;;;;;;;7.77;4.13;;;4.40;99.90;;;;;;5133209;27;20666;-79
2022/11/23 02:14:13;;;;;;;7.27;4.10;;;4.50;99.90;;;;;;5113915;28;20214;-77
2022/11/23 02:16:47;;;;;;;8.53;4.47;;;4.40;99.90;;;;;;5112798;28;20260;-79
2022/11/23 02:19:22;;;;;;;11.10;5.10;;;4.40;99.90;;;;;;5111565;28;20208;-80
2022/11/23 02:21:52;;;;;;;8.80;4.37;;;4.40;99.90;;;;;;5112425;28;20218;-79
2022/11/23 02:24:28;;;;;;;8.13;4.07;;;4.40;99.90;;;;;;5112800;28;20206;-79
2022/11/23 02:26:57;;;;;;;6.90;4.13;;;4.40;99.90;;;;;;5126352;27;20200;-78
2022/11/23 02:29:27;;;;;;;10.77;4.77;;;4.40;99.90;;;;;;5133209;27;20232;-79
2022/11/23 02:31:56;;;;;;;11.77;4.73;;;4.40;99.90;;;;;;5133508;27;20209;-78
2022/11/23 02:34:24;;;;;;;9.00;4.20;;;4.40;99.90;;;;;;5133476;27;20201;-79
2022/11/23 02:36:55;;;;;;;7.40;3.90;;;4.40;99.90;;;;;;5131951;28;20579;-78
2022/11/23 02:39:31;;;;;;;9.27;4.83;;;4.40;99.90;;;;;;5113285;28;20575;-80
2022/11/23 02:42:01;;;;;;;9.20;5.00;;;4.40;99.90;;;;;;5113038;28;20258;-77
2022/11/23 02:44:36;;;;;;;9.27;4.60;;;4.40;99.90;;;;;;5112832;28;20296;-78
2022/11/23 02:47:05;;;;;;;7.10;4.00;;;4.40;99.90;;;;;;5095007;28;20541;-80
2022/11/23 02:49:33;;;;;;;7.70;3.43;;;4.40;99.90;;;;;;5110183;28;20232;-79
2022/11/23 02:52:02;;;;;;;7.40;4.23;;;4.40;99.90;;;;;;5112182;28;20217;-79
2022/11/23 02:54:31;;;;;;;5.93;3.73;;;4.40;99.90;;;;;;5114231;28;20210;-76
2022/11/23 02:57:00;;;;;;;7.97;3.43;;;4.30;99.90;;;;;;5133744;28;20225;-75
2022/11/23 02:59:32;;;;;;;7.27;3.10;;;4.40;99.90;;;;;;5137925;28;20197;-79
2022/11/23 03:02:02;;;;;;;6.47;2.83;;;4.30;99.90;;;;;;5132687;28;20194;-80
2022/11/23 03:04:30;;;;;;;6.03;2.90;;;4.30;99.90;;;;;;5133182;28;20205;-80
2022/11/23 03:06:59;;;;;;;4.37;2.90;;;4.30;99.90;;;;;;5133247;28;20292;-80
2022/11/23 03:09:31;;;;;;;5.60;2.70;;;4.30;99.90;;;;;;5136629;27;20233;-79
2022/11/23 03:12:02;;;;;;;8.07;3.23;;;4.30;99.90;;;;;;5136699;27;20553;-80
2022/11/23 03:14:30;;;;;;;5.20;3.07;;;4.30;99.90;;;;;;5137152;27;20213;-80
2022/11/23 03:17:00;;;;;;;6.67;3.47;;;4.20;99.90;;;;;;5136196;27;20296;-80
2022/11/23 03:19:28;;;;;;;7.10;3.03;;;4.20;99.90;;;;;;5137120;27;20655;-79
2022/11/23 03:21:56;;;;;;;6.20;3.23;;;4.20;99.90;;;;;;5137192;27;20216;-79
2022/11/23 03:24:26;;;;;;;5.07;3.07;;;4.10;99.90;;;;;;5136408;27;20212;-79
2022/11/23 03:26:57;;;;;;;5.10;3.00;;;4.10;99.90;;;;;;5137157;27;20284;-78
2022/11/23 03:29:26;;;;;;;7.27;3.50;;;4.00;99.90;;;;;;5136548;27;20605;-79
2022/11/23 03:31:54;;;;;;;6.77;3.70;;;4.10;99.90;;;;;;5136842;27;20650;-77
2022/11/23 03:34:23;;;;;;;8.57;3.60;;;4.00;99.90;;;;;;5136636;27;20210;-79
2022/11/23 03:36:51;;;;;;;8.10;3.90;;;4.00;99.90;;;;;;5136811;27;20212;-79
2022/11/23 03:39:19;;;;;;;6.40;3.87;;;4.00;99.90;;;;;;5136671;27;20198;-79
2022/11/23 03:41:47;;;;;;;7.17;4.07;;;4.00;99.90;;;;;;5121989;27;20301;-79
2022/11/23 03:44:18;;;;;;;8.77;3.97;;;3.90;99.90;;;;;;5116092;28;20252;-77
2022/11/23 03:46:49;;;;;;;7.80;4.33;;;4.00;99.90;;;;;;5116281;28;20216;-80
2022/11/23 03:49:17;;;;;;;7.50;4.20;;;4.00;99.90;;;;;;5116017;28;20221;-79
2022/11/23 03:51:48;;;;;;;8.33;4.40;;;4.00;99.90;;;;;;5115830;27;20217;-79
2022/11/23 03:54:16;;;;;;;8.30;4.30;;;4.00;99.90;;;;;;5115580;28;20637;-79
2022/11/23 03:56:44;;;;;;;9.03;4.97;;;4.00;99.90;;;;;;5115580;28;20238;-79
2022/11/23 03:59:12;;;;;;;7.17;4.40;;;4.00;99.90;;;;;;5116068;27;20660;-78
2022/11/23 04:01:43;;;;;;;7.87;4.57;;;4.00;99.90;;;;;;5115581;28;20195;-79
2022/11/23 04:04:12;;;;;;;9.83;4.67;;;4.00;99.90;;;;;;5115863;28;20209;-79
2022/11/23 04:06:40;;;;;;;7.90;4.50;;;4.00;99.90;;;;;;5115633;28;20213;-79
2022/11/23 04:09:09;;;;;;;9.07;4.90;;;4.00;99.90;;;;;;5115617;28;20233;-78
2022/11/23 04:11:37;;;;;;;7.90;4.60;;;4.00;99.90;;;;;;5115815;28;20206;-78
2022/11/23 04:14:05;;;;;;;10.07;4.83;;;4.00;99.90;;;;;;5115834;28;20540;-79
2022/11/23 04:16:33;;;;;;;8.53;4.73;;;4.00;99.90;;;;;;5115772;27;20206;-80
2022/11/23 04:19:01;;;;;;;8.87;4.37;;;4.00;99.90;;;;;;5115395;28;20202;-77
2022/11/23 04:21:30;;;;;;;8.57;4.80;;;4.10;99.90;;;;;;5114853;28;20217;-79
2022/11/23 04:23:58;;;;;;;8.93;4.37;;;4.00;99.90;;;;;;5127713;27;20205;-79
2022/11/23 04:26:26;;;;;;;7.87;4.33;;;4.00;99.90;;;;;;5136332;27;20217;-80
2022/11/23 04:28:55;;;;;;;9.90;4.63;;;4.00;99.90;;;;;;5136171;27;20225;-79
2022/11/23 04:31:23;;;;;;;8.13;4.23;;;4.10;99.90;;;;;;5133380;27;20216;-76
2022/11/23 04:33:54;;;;;;;8.97;4.33;;;4.00;99.90;;;;;;5114399;28;20214;-76
2022/11/23 04:36:26;;;;;;;7.63;4.13;;;4.10;99.90;;;;;;5114325;28;20194;-78
2022/11/23 04:38:55;;;;;;;6.53;3.77;;;4.10;99.90;;;;;;5115014;28;20194;-73
2022/11/23 04:41:24;;;;;;;8.83;4.60;;;4.00;99.90;;;;;;5114597;28;20206;-76
2022/11/23 04:43:52;;;;;;;6.27;4.30;;;4.10;99.90;;;;;;5114773;28;20210;-77
2022/11/23 04:46:20;;;;;;;6.67;4.00;;;4.00;99.90;;;;;;5115196;28;20202;-79
2022/11/23 04:48:48;;;;;;;7.03;4.10;;;3.90;99.90;;;;;;5114525;28;20226;-80
2022/11/23 04:51:16;;;;;;;6.97;4.20;;;4.00;99.90;;;;;;5114341;28;20703;-77
2022/11/23 04:53:47;;;;;;;8.47;4.20;;;3.90;99.90;;;;;;5114501;28;20214;-79
2022/11/23 04:56:17;;;;;;;5.93;4.13;;;4.00;99.90;;;;;;5114136;28;20206;-78
2022/11/23 04:58:45;;;;;;;8.43;3.90;;;3.90;99.90;;;;;;5114495;28;20210;-79
2022/11/23 05:01:13;;;;;;;9.20;4.20;;;3.90;99.90;;;;;;5114286;28;20582;-79
2022/11/23 05:03:41;;;;;;;7.60;4.77;;;3.90;99.90;;;;;;5113996;28;20260;-79
2022/11/23 05:06:10;;;;;;;11.33;5.47;;;3.90;99.90;;;;;;5114541;28;20564;-79
2022/11/23 05:08:38;;;;;;;11.60;6.40;;;3.90;99.90;;;;;;5114093;28;20237;-79
2022/11/23 05:11:06;;;;;;;10.53;6.37;;;3.90;99.90;;;;;;5114129;28;20206;-78
2022/11/23 05:13:35;;;;;;;10.77;5.70;;;3.90;99.90;;;;;;5114114;28;20211;-79
2022/11/23 05:16:04;;;;;;;10.77;6.70;;;3.80;99.90;;;;;;5114228;28;20202;-77
2022/11/23 05:18:32;;;;;;;10.30;5.33;;;3.80;99.90;;;;;;5116769;28;20213;-79
2022/11/23 05:21:00;;;;;;;10.97;6.77;;;3.80;99.90;;;;;;5113860;28;20210;-78
2022/11/23 05:23:28;;;;;;;13.90;6.87;;;3.80;99.90;;;;;;5133955;27;20300;-77
2022/11/23 05:25:56;;;;;;;8.17;4.73;;;3.80;99.90;;;;;;5134652;27;20210;-77
2022/11/23 05:28:24;;;;;;;8.30;4.40;;;3.80;99.90;;;;;;5135094;27;20209;-79
2022/11/23 05:31:11;;;;;;;8.67;4.40;;;3.80;99.90;;;;;;5133313;27;20706;-78
2022/11/23 05:33:39;;;;;;;6.03;4.10;;;3.80;99.90;;;;;;5113614;28;20281;-78
2022/11/23 05:36:08;;;;;;;7.77;4.00;;;3.80;99.90;;;;;;5113664;28;20206;-77
2022/11/23 05:38:36;;;;;;;9.53;4.60;;;3.70;99.90;;;;;;5114093;28;20206;-78
2022/11/23 05:41:05;;;;;;;8.23;5.10;;;3.70;99.90;;;;;;5113702;28;20206;-78
2022/11/23 05:43:33;;;;;;;9.47;5.50;;;3.70;99.90;;;;;;5117219;28;20202;-75
2022/11/23 05:46:01;;;;;;;10.27;5.80;;;3.70;99.90;;;;;;5115983;28;20213;-75
2022/11/23 05:48:31;;;;;;;9.20;6.03;;;3.70;99.90;;;;;;5114780;28;20213;-79
2022/11/23 05:50:59;;;;;;;8.60;5.57;;;3.60;99.90;;;;;;5113500;28;20236;-79
2022/11/23 05:53:32;;;;;;;7.87;6.00;;;3.60;99.90;;;;;;5112898;28;20241;-79
2022/11/23 05:56:00;;;;;;;8.60;6.10;;;3.60;99.90;;;;;;5112831;28;20232;-77
2022/11/23 05:58:29;;;;;;;9.43;5.77;;;3.50;99.90;;;;;;5112687;28;20711;-77
2022/11/23 06:00:58;;;;;;;8.67;5.80;;;3.60;99.90;;;;;;5113691;27;20213;-79
2022/11/23 06:03:27;;;;;;;10.53;6.30;;;3.60;99.90;;;;;;5112784;28;20209;-79
2022/11/23 06:05:57;;;;;;;10.10;7.77;;;3.50;99.90;;;;;;5113330;28;20292;-79
2022/11/23 06:08:26;;;;;;;10.33;6.03;;;3.60;99.90;;;;;;5113236;28;20281;-79
2022/11/23 06:10:54;;;;;;;11.70;5.87;;;3.50;99.90;;;;;;5113271;28;20237;-78
2022/11/23 06:13:22;;;;;;;9.80;5.77;;;3.50;99.90;;;;;;5112689;28;20210;-79
2022/11/23 06:15:50;;;;;;;9.70;5.70;;;3.50;99.90;;;;;;5113265;28;20287;-80
2022/11/23 06:18:18;;;;;;;8.90;6.00;;;3.50;99.90;;;;;;5113197;28;20214;-79
2022/11/23 06:20:46;;;;;;;8.93;5.83;;;3.50;99.90;;;;;;5126874;27;20360;-78
2022/11/23 06:23:16;;;;;;;8.33;6.07;;;3.50;99.90;;;;;;5132609;27;20205;-77
2022/11/23 06:25:44;;;;;;;9.87;6.27;;;3.50;99.90;;;;;;5133633;27;20241;-79
2022/11/23 06:28:12;;;;;;;9.83;5.83;;;3.50;99.90;;;;;;5133708;27;20206;-77
2022/11/23 06:30:40;;;;;;;8.23;6.00;;;3.50;99.90;;;;;;5139658;27;20221;-76
2022/11/23 06:33:08;;;;;;;10.37;5.87;;;3.60;99.90;;;;;;5141979;27;20233;-78
2022/11/23 06:35:36;;;;;;;9.17;6.40;;;3.50;99.90;;;;;;5115526;28;20206;-77
2022/11/23 06:38:05;;;;;;;8.30;5.47;;;3.50;99.90;;;;;;5112964;28;20214;-78
2022/11/23 06:40:34;;;;;;;10.60;5.40;;;3.50;99.90;;;;;;5112853;28;20292;-77
2022/11/23 06:43:07;;;;;;;8.33;5.20;;;3.50;99.90;;;;;;5111385;28;20241;-80
2022/11/23 06:45:35;;;;;;;8.87;4.67;;;3.60;99.90;;;;;;5115913;27;20198;-79
2022/11/23 06:48:03;;;;;;;10.20;4.57;;;3.50;99.90;;;;;;5117230;27;20209;-79
2022/11/23 06:50:31;;;;;;;8.67;4.60;;;3.50;99.90;;;;;;5117133;28;20229;-80
2022/11/23 06:53:00;;;;;;;8.30;4.80;;;3.50;99.90;;;;;;5116241;28;20220;-77
2022/11/23 06:55:31;;;;;;;8.10;4.60;;;3.60;99.90;;;;;;5116973;28;20206;-78
2022/11/23 06:58:00;;;;;;;7.60;4.13;;;3.60;99.90;;;;;;5116682;28;20237;-80
2022/11/23 07:00:28;;;;;;;7.77;3.90;;;3.70;99.90;;;;;;5116597;27;20614;-79
2022/11/23 07:02:59;;;;;;;7.50;4.13;;;3.70;99.90;;;;;;5116300;28;20218;-78
2022/11/23 07:05:27;;;;;;;7.80;4.33;;;3.70;99.90;;;;;;5116304;28;20210;-78
2022/11/23 07:07:57;;;;;;;7.00;4.50;;;3.80;99.90;;;;;;5117022;28;20213;-78
2022/11/23 07:10:25;;;;;;;6.87;4.70;;;4.00;99.90;;;;;;5116496;28;20222;-79
2022/11/23 07:12:53;;;;;;;6.93;4.00;;;3.90;99.90;;;;;;5115684;28;20520;-79
2022/11/23 07:15:23;;;;;;;6.57;4.00;;;4.00;99.90;;;;;;5116841;28;20244;-75
2022/11/23 07:17:51;;;;;;;7.73;4.27;;;4.00;99.90;;;;;;5116049;28;20696;-74
2022/11/23 07:20:19;;;;;;;6.00;3.83;;;4.20;99.90;;;;;;5133584;27;20213;-74
2022/11/23 07:22:47;;;;;;;5.37;3.20;;;4.20;99.90;;;;;;5136227;27;20444;-75
2022/11/23 07:25:17;;;;;;;5.23;3.30;;;4.30;99.90;;;;;;5127222;27;20264;-76
2022/11/23 07:27:45;;;;;;;6.37;3.67;;;4.40;99.90;;;;;;5116496;28;20221;-77
2022/11/23 07:30:14;;;;;;;6.60;3.37;;;4.50;99.90;;;;;;5116329;28;20224;-77
2022/11/23 07:32:44;;;;;;;8.33;3.50;;;4.60;99.90;;;;;;5115827;27;20228;-75
2022/11/23 07:35:12;;;;;;;7.20;3.80;;;4.60;99.90;;;;;;5115681;28;20206;-74
2022/11/23 07:37:40;;;;;;;7.50;3.87;;;4.80;99.90;;;;;;5116325;28;20213;-77
2022/11/23 07:40:09;;;;;;;6.93;3.53;;;4.80;99.90;;;;;;5117118;28;20217;-75
2022/11/23 07:42:37;;;;;;;9.77;3.77;;;4.90;99.90;;;;;;5115852;27;20206;-78
2022/11/23 07:45:12;;;;;;;5.63;3.23;;;4.90;99.90;;;;;;5116339;28;20574;-78
2022/11/23 07:47:44;;;;;;;5.83;3.37;;;4.90;99.90;;;;;;5134313;27;20671;-79
2022/11/23 07:50:13;;;;;;;5.10;3.03;;;4.90;99.90;;;;;;5127780;27;20217;-78
2022/11/23 07:52:42;;;;;;;5.50;3.40;;;4.90;99.90;;;;;;5115510;28;20222;-79
2022/11/23 07:55:12;;;;;;;4.77;3.37;;;5.00;99.90;;;;;;5115772;27;20200;-78
2022/11/23 07:57:40;;;;;;;6.47;3.60;;;5.00;99.90;;;;;;5123354;27;20226;-78
2022/11/23 08:00:11;;;;;;;7.10;4.20;;;4.90;99.90;;;;;;5116431;27;20217;-76
2022/11/23 08:02:39;;;;;;;6.20;3.60;;;5.10;99.90;;;;;;5115511;27;20580;-76
2022/11/23 08:05:30;;;;;;;5.77;3.27;;;5.00;99.90;;;;;;5115643;28;20667;-73
2022/11/23 08:08:00;;;;;;;7.23;3.80;;;5.10;99.90;;;;;;5114810;28;20423;-79
2022/11/23 08:10:29;;;;;;;5.17;3.27;;;5.70;99.90;;;;;;5129953;27;20207;-76
2022/11/23 08:12:58;;;;;;;4.90;3.27;;;5.80;99.90;;;;;;5131497;27;20206;-78
2022/11/23 08:15:27;;;;;;;4.43;2.87;;;5.60;99.90;;;;;;5116278;28;20210;-77
2022/11/23 08:17:56;;;;;;;4.77;3.23;;;5.70;99.90;;;;;;5124538;27;20209;-77
2022/11/23 08:20:24;;;;;;;4.73;3.10;;;5.70;99.90;;;;;;5135628;27;20730;-78
2022/11/23 08:22:54;;;;;;;5.60;2.97;;;5.70;99.90;;;;;;5135576;27;20220;-77
2022/11/23 08:25:23;;;;;;;6.80;3.20;;;5.60;99.90;;;;;;5135926;27;20611;-78
2022/11/23 08:27:55;;;;;;;6.07;2.90;;;5.70;99.90;;;;;;5115604;28;20237;-77
2022/11/23 08:30:23;;;;;;;4.20;2.90;;;5.70;99.90;;;;;;5114643;27;20197;-74
2022/11/23 08:32:59;;;;;;;4.77;3.00;;;5.90;99.90;;;;;;5115112;28;20209;-73
2022/11/23 08:35:27;;;;;;;4.50;2.90;;;6.00;99.90;;;;;;5139584;27;20196;-74
2022/11/23 08:37:56;;;;;;;5.13;3.10;;;5.90;99.90;;;;;;5137095;27;20209;-72
2022/11/23 08:40:24;;;;;;;4.77;2.80;;;7.00;99.90;;;;;;5123275;27;20209;-73
2022/11/23 08:42:53;;;;;;;5.73;2.73;;;6.60;99.90;;;;;;5132565;27;20205;-76
2022/11/23 08:45:21;;;;;;;3.40;2.50;;;6.40;99.90;;;;;;5138859;27;20201;-77
2022/11/23 08:47:49;;;;;;;7.00;2.90;;;6.70;99.90;;;;;;5137393;27;20243;-78
2022/11/23 08:50:18;;;;;;;4.67;2.70;;;6.70;99.90;;;;;;5135652;27;20237;-77
2022/11/23 08:52:48;;;;;;;3.77;2.50;;;6.60;99.90;;;;;;5134677;27;20226;-78
2022/11/23 08:55:17;;;;;;;4.33;2.90;;;6.60;99.90;;;;;;5135099;27;20217;-79
2022/11/23 08:57:46;;;;;;;5.27;2.30;;;6.60;99.90;;;;;;5126108;27;20707;-78
2022/11/23 09:00:15;;;;;;;5.37;2.30;;;6.70;99.90;;;;;;5115092;28;20203;-78
2022/11/23 09:02:43;;;;;;;9.33;5.70;;;6.60;99.90;;;;;;5114098;28;20213;-77
2022/11/23 09:05:11;;;;;;;3.23;2.20;;;6.60;99.90;;;;;;5114197;28;20207;-76
2022/11/23 09:07:40;;;;;;;3.57;2.00;;;6.80;99.90;;;;;;5114035;28;20202;-78
2022/11/23 09:10:08;;;;;;;3.53;2.67;;;6.70;99.90;;;;;;5114447;28;20206;-77
2022/11/23 09:12:44;;;;;;;4.30;2.90;;;6.80;99.90;;;;;;5114076;27;20214;-77
2022/11/23 09:15:13;;;;;;;3.93;2.20;;;6.90;99.90;;;;;;5114797;28;20253;-78
2022/11/23 09:17:40;;;;;;;4.83;2.20;;;6.90;99.90;;;;;;5132997;27;20214;-77
2022/11/23 09:20:10;;;;;;;7.03;2.40;;;7.10;99.90;;;;;;5135210;27;20587;-79
2022/11/23 09:22:38;;;;;;;4.57;2.23;;;7.20;99.90;;;;;;5115161;27;20217;-77
2022/11/23 09:25:07;;;;;;;3.10;2.20;;;7.20;99.90;;;;;;5114592;28;20206;-76
2022/11/23 09:27:35;;;;;;;5.23;2.20;;;7.20;99.90;;;;;;5114543;28;20238;-76
2022/11/23 09:30:07;;;;;;;6.43;2.07;;;7.30;99.90;;;;;;5116088;27;20226;-80
2022/11/23 09:32:35;;;;;;;4.40;2.23;;;7.10;99.90;;;;;;5114021;28;20214;-78
2022/11/23 09:35:04;;;;;;;4.97;2.63;;;7.20;99.90;;;;;;5122508;27;20564;-76
2022/11/23 09:37:32;;;;;;;4.07;1.70;;;7.40;99.90;;;;;;5135695;27;20217;-78
2022/11/23 09:40:00;;;;;;;4.87;1.83;;;7.40;99.90;;;;;;5135284;27;20209;-79
2022/11/23 09:42:45;;;;;;;3.27;1.83;;;7.50;99.90;;;;;;5134626;27;20655;-78
2022/11/23 09:45:35;;;;;;;6.87;2.30;;;7.60;99.90;;;;;;5135796;27;20206;-79
2022/11/23 09:48:29;;;;;;;7.03;4.37;;;7.70;99.90;;;;;;5135281;27;20220;-80
2022/11/23 09:51:02;;;;;;;11.50;7.80;;;7.90;99.90;;;;;;5143205;27;20208;-79
2022/11/23 09:53:36;;;;;;;4.57;2.07;;;7.80;99.90;;;;;;5150450;27;20211;-80
2022/11/23 09:56:05;;;;;;;6.07;2.50;;;7.70;99.90;;;;;;5141963;27;20332;-79
2022/11/23 09:58:39;;;;;;;5.33;3.30;;;7.70;99.90;;;;;;5134998;27;20229;-80
2022/11/23 10:01:13;;;;;;;3.40;2.10;;;7.70;99.90;;;;;;5136057;27;20280;-78
2022/11/23 10:03:43;;;;;;;11.30;10.13;;;7.70;99.90;;;;;;5125596;27;20229;-77
2022/11/23 10:06:22;;;;;;;7.77;6.00;;;7.70;99.90;;;;;;5114945;28;20469;-79
2022/11/23 10:09:06;;;;;;;4.47;1.70;;;7.80;99.90;;;;;;5115168;27;20606;-79
2022/11/23 10:12:19;;;;;;;4.50;1.80;;;8.00;99.90;;;;;;5115805;28;20225;-81
2022/11/23 10:15:00;;;;;;;4.97;2.90;;;8.00;99.90;;;;;;5075777;28;20309;-80
2022/11/23 10:17:58;;;;;;;3.20;2.20;;;8.00;99.90;;;;;;5138872;27;20708;-79
2022/11/23 10:20:48;;;;;;;3.73;1.80;;;8.10;99.90;;;;;;5137086;27;20230;-79
2022/11/23 10:23:25;;;;;;;4.20;2.10;;;8.20;99.90;;;;;;5117961;28;20210;-78
2022/11/23 10:25:53;;;;;;;3.97;2.30;;;8.20;99.90;;;;;;5116526;28;20213;-80
2022/11/23 10:28:23;;;;;;;3.80;1.87;;;8.30;99.90;;;;;;5115564;28;20625;-80
2022/11/23 10:30:58;;;;;;;3.93;1.50;;;8.20;99.90;;;;;;5116555;28;20210;-78
2022/11/23 10:33:31;;;;;;;5.70;1.93;;;8.40;99.90;;;;;;5116628;27;20206;-78
2022/11/23 10:35:59;;;;;;;2.90;1.80;;;8.10;99.90;;;;;;5134696;27;20185;-79
2022/11/23 10:38:32;;;;;;;3.67;1.80;;;8.20;99.90;;;;;;5136605;27;20241;-79
2022/11/23 10:41:04;;;;;;;6.20;2.33;;;8.40;99.90;;;;;;5135025;28;20212;-78
2022/11/23 10:43:38;;;;;;;7.67;2.40;;;9.10;99.90;;;;;;5133374;28;20186;-77
2022/11/23 10:46:30;;;;;;;5.87;2.30;;;10.40;99.90;;;;;;5134090;28;20632;-77
2022/11/23 10:49:16;;;;;;;4.23;2.30;;;11.60;99.90;;;;;;5134368;28;20207;-80
2022/11/23 10:51:58;;;;;;;3.20;1.90;;;12.30;99.90;;;;;;5133727;28;20196;-79
2022/11/23 10:54:29;;;;;;;3.50;1.43;;;12.80;99.90;;;;;;5132943;28;20205;-79
2022/11/23 10:57:00;;;;;;;2.93;1.40;;;13.20;99.90;;;;;;5133346;28;20205;-81
2022/11/23 10:59:37;;;;;;;3.63;1.30;;;13.80;99.90;;;;;;5114306;28;20210;-79
2022/11/23 11:02:17;;;;;;;3.23;1.60;;;14.00;99.90;;;;;;5120444;28;20189;-80
2022/11/23 11:04:50;;;;;;;3.33;1.60;;;14.70;99.90;;;;;;5133047;28;20556;-80
2022/11/23 11:07:28;;;;;;;4.27;1.50;;;15.00;99.90;;;;;;5126056;28;20206;-80
2022/11/23 11:09:59;;;;;;;2.90;1.57;;;15.20;99.90;;;;;;5113292;28;20736;-83
2022/11/23 11:12:29;;;;;;;4.73;1.70;;;15.70;99.90;;;;;;5112662;28;20233;-80
2022/11/23 11:15:02;;;;;;;2.17;1.47;;;14.90;99.90;;;;;;5132738;28;20201;-80
2022/11/23 11:17:38;;;;;;;5.03;1.60;;;15.10;99.90;;;;;;5113212;28;20218;-79
2022/11/23 11:20:30;;;;;;;2.63;1.77;;;14.80;99.90;;;;;;5112371;28;20715;-78
2022/11/23 11:23:00;;;;;;;4.47;2.30;;;14.80;99.90;;;;;;5111710;28;20186;-78
2022/11/23 11:25:31;;;;;;;2.90;1.70;;;14.50;99.90;;;;;;5127337;28;20671;-79
2022/11/23 11:28:00;;;;;;;4.30;1.40;;;13.90;99.90;;;;;;5132878;28;20222;-78
2022/11/23 11:30:36;;;;;;;3.37;1.40;;;13.10;99.90;;;;;;5136077;27;20317;-78
2022/11/23 11:33:11;;;;;;;3.03;1.57;;;12.50;99.90;;;;;;5136998;27;20209;-79
2022/11/23 11:35:46;;;;;;;3.67;1.57;;;12.10;99.90;;;;;;5129450;27;20192;-79
2022/11/23 11:38:21;;;;;;;3.07;1.40;;;12.20;99.90;;;;;;5136647;27;20670;-77
2022/11/23 11:40:51;;;;;;;4.53;1.57;;;11.80;99.90;;;;;;5141030;27;20205;-80
2022/11/23 11:43:23;;;;;;;3.73;1.60;;;11.60;99.90;;;;;;5140597;27;20303;-80
2022/11/23 11:46:05;;;;;;;3.57;1.40;;;11.40;99.90;;;;;;5137959;27;20221;-80
2022/11/23 11:48:57;;;;;;;3.43;1.50;;;11.60;99.90;;;;;;5138185;27;20213;-81
2022/11/23 11:51:34;;;;;;;3.70;1.40;;;11.50;99.90;;;;;;5139939;27;20616;-79
2022/11/23 11:54:08;;;;;;;5.17;1.70;;;11.50;99.90;;;;;;5120071;28;20228;-80
2022/11/23 11:56:41;;;;;;;4.53;1.80;;;11.20;99.90;;;;;;5120156;28;20266;-80
2022/11/23 11:59:16;;;;;;;5.87;2.23;;;11.10;99.90;;;;;;5102268;28;20216;-81
2022/11/23 12:01:54;;;;;;;6.90;2.57;;;10.90;99.90;;;;;;5118639;28;20309;-80
2022/11/23 12:04:28;;;;;;;4.97;1.77;;;11.00;99.90;;;;;;5122569;28;20210;-79
2022/11/23 12:07:05;;;;;;;3.93;1.60;;;10.80;99.90;;;;;;5121835;28;20216;-79
2022/11/23 12:09:39;;;;;;;3.00;1.33;;;10.50;99.90;;;;;;5120042;28;20205;-79
2022/11/23 12:12:16;;;;;;;3.47;1.67;;;10.20;99.90;;;;;;5120176;27;20209;-78
2022/11/23 12:14:45;;;;;;;4.53;1.57;;;9.90;99.90;;;;;;5118537;27;20238;-78
2022/11/23 12:20:38;;;;;;;5.23;3.53;;;9.70;99.90;;;;;;5139527;27;20202;-77
2022/11/23 12:23:19;;;;;;;4.87;1.60;;;9.70;99.90;;;;;;5119177;27;20202;-78
2022/11/23 12:25:56;;;;;;;3.90;1.47;;;9.80;99.90;;;;;;5119534;28;20190;-80
2022/11/23 12:28:37;;;;;;;3.43;1.43;;;9.80;99.90;;;;;;5117783;28;20634;-76
2022/11/23 12:31:13;;;;;;;4.87;1.60;;;9.80;99.90;;;;;;5116512;27;20241;-79
2022/11/23 12:34:07;;;;;;;2.30;1.30;;;10.10;99.90;;;;;;5117799;27;20225;-79
2022/11/23 12:37:04;;;;;;;5.40;3.17;;;10.10;99.90;;;;;;5119763;27;20638;-81
2022/11/23 12:39:57;;;;;;;3.73;1.50;;;10.00;99.90;;;;;;5122887;28;20226;-80
2022/11/23 12:42:35;;;;;;;3.40;1.33;;;9.80;99.90;;;;;;5120711;28;20262;-81
2022/11/23 12:45:17;;;;;;;3.40;1.43;;;9.80;99.90;;;;;;5116150;27;20210;-79
2022/11/23 12:47:56;;;;;;;4.53;1.40;;;9.70;99.90;;;;;;5116360;28;20210;-78
2022/11/23 12:50:30;;;;;;;4.73;1.40;;;9.60;99.90;;;;;;5132576;27;20549;-79
2022/11/23 12:53:05;;;;;;;5.70;1.90;;;9.50;99.90;;;;;;5136911;27;20793;-78
2022/11/23 12:55:43;;;;;;;4.43;1.20;;;9.50;99.90;;;;;;5136925;27;20223;-77
2022/11/23 12:58:19;;;;;;;4.97;1.80;;;9.30;99.90;;;;;;5136253;27;20307;-81
2022/11/23 13:00:51;;;;;;;4.43;1.57;;;9.40;99.90;;;;;;5136708;27;20193;-79
2022/11/23 13:03:54;;;;;;;3.83;1.60;;;9.30;99.90;;;;;;5124075;27;20692;-80
2022/11/23 13:07:12;;;;;;;3.87;1.97;;;8.90;99.90;;;;;;5115752;28;20201;-79
2022/11/23 13:10:23;;;;;;;5.97;2.40;;;8.70;99.90;;;;;;5118259;27;20210;-80
2022/11/23 13:13:07;;;;;;;6.80;1.90;;;8.70;99.90;;;;;;5131091;27;20213;-79
2022/11/23 13:15:58;;;;;;;5.93;1.80;;;8.70;99.90;;;;;;5139583;27;20198;-77
2022/11/23 13:18:53;;;;;;;3.13;1.90;;;8.90;99.90;;;;;;5136466;27;20201;-79
2022/11/23 13:21:31;;;;;;;4.83;1.90;;;8.90;99.90;;;;;;5121635;27;20221;-79
2022/11/23 13:24:00;;;;;;;4.53;1.67;;;8.90;99.90;;;;;;5117893;28;20197;-77